createdAt,value
2023-12-31T00:00:20.661Z,5.87
2023-12-31T00:03:43.933Z,5.90
2023-12-31T00:07:06.303Z,6.40
2023-12-31T00:10:28.100Z,6.03
2023-12-31T00:13:49.993Z,5.40
2023-12-31T00:17:11.747Z,6.17
2023-12-31T00:20:34.345Z,5.07
2023-12-31T00:23:55.579Z,6.33
2023-12-31T00:27:16.804Z,5.53
2023-12-31T00:30:38.051Z,5.23
2023-12-31T00:33:59.651Z,5.97
2023-12-31T00:37:22.964Z,5.87
2023-12-31T00:40:44.353Z,5.43
2023-12-31T00:44:06.097Z,5.13
2023-12-31T00:47:27.324Z,5.13
2023-12-31T00:50:48.585Z,4.43
2023-12-31T00:54:11.818Z,5.17
2023-12-31T00:57:35.169Z,4.43
2023-12-31T01:00:56.301Z,4.37
2023-12-31T01:04:17.729Z,4.83
2023-12-31T01:07:39.405Z,5.27
2023-12-31T01:11:03.309Z,4.53
2023-12-31T01:14:24.575Z,3.53
2023-12-31T01:17:45.939Z,3.70
2023-12-31T01:21:07.674Z,3.67
2023-12-31T01:24:29.015Z,4.57
2023-12-31T01:27:54.973Z,4.87
2023-12-31T01:31:20.872Z,5.40
2023-12-31T01:34:42.628Z,5.73
2023-12-31T01:38:04.588Z,7.23
2023-12-31T01:41:26.109Z,5.90
2023-12-31T01:44:48.712Z,5.73
2023-12-31T01:48:10.575Z,5.40
2023-12-31T01:51:34.035Z,5.27
2023-12-31T01:54:56.212Z,5.37
2023-12-31T01:58:19.094Z,11.63
2023-12-31T02:01:42.423Z,11.40
2023-12-31T02:05:06.740Z,9.23
2023-12-31T02:08:28.365Z,6.53
2023-12-31T02:11:49.697Z,4.80
2023-12-31T02:15:11.341Z,5.60
2023-12-31T02:18:35.298Z,5.20
2023-12-31T02:21:56.739Z,5.07
2023-12-31T02:25:21.260Z,5.50
2023-12-31T02:28:45.292Z,4.87
2023-12-31T02:32:07.294Z,4.70
2023-12-31T02:35:28.925Z,5.70
2023-12-31T02:38:50.222Z,5.43
2023-12-31T02:42:11.892Z,5.17
2023-12-31T02:45:35.087Z,5.80
2023-12-31T02:48:56.408Z,5.30
2023-12-31T02:52:18.648Z,5.93
2023-12-31T02:55:40.351Z,5.73
2023-12-31T02:59:02.191Z,6.40
2023-12-31T03:02:24.990Z,5.90
2023-12-31T03:05:47.140Z,5.90
2023-12-31T03:09:09.872Z,6.37
2023-12-31T03:12:31.539Z,5.90
2023-12-31T03:15:52.981Z,5.57
2023-12-31T03:19:16.789Z,5.83
2023-12-31T03:22:42.334Z,5.57
2023-12-31T03:26:08.338Z,5.93
2023-12-31T03:29:29.765Z,5.43
2023-12-31T03:32:51.584Z,5.47
2023-12-31T03:36:14.700Z,5.43
2023-12-31T03:39:36.362Z,5.30
2023-12-31T03:42:57.631Z,5.10
2023-12-31T03:46:18.993Z,5.40
2023-12-31T03:49:40.238Z,5.23
2023-12-31T03:53:03.547Z,5.17
2023-12-31T03:56:25.060Z,6.20
2023-12-31T03:59:46.779Z,6.63
2023-12-31T04:03:08.507Z,5.10
2023-12-31T04:06:29.763Z,5.33
2023-12-31T04:09:52.752Z,5.70
2023-12-31T04:13:14.600Z,5.37
2023-12-31T04:16:36.339Z,5.03
2023-12-31T04:19:58.324Z,4.77
2023-12-31T04:23:20.346Z,4.87
2023-12-31T04:26:45.660Z,5.33
2023-12-31T04:30:08.520Z,5.37
2023-12-31T04:33:30.050Z,5.37
2023-12-31T04:36:51.527Z,5.80
2023-12-31T04:40:13.652Z,7.77
2023-12-31T04:43:36.539Z,9.20
2023-12-31T04:46:58.362Z,13.17
2023-12-31T04:50:20.148Z,10.83
2023-12-31T04:53:41.782Z,9.83
2023-12-31T04:57:03.046Z,5.80
2023-12-31T05:00:26.269Z,5.03
2023-12-31T05:03:48.891Z,4.83
2023-12-31T05:07:10.703Z,4.10
2023-12-31T05:10:32.642Z,4.50
2023-12-31T05:13:54.383Z,4.80
2023-12-31T05:17:17.610Z,5.27
2023-12-31T05:20:39.346Z,4.23
2023-12-31T05:24:01.301Z,4.40
2023-12-31T05:27:22.648Z,4.60
2023-12-31T05:30:44.617Z,4.67
2023-12-31T05:34:07.703Z,4.00
2023-12-31T05:37:29.287Z,4.50
2023-12-31T05:40:51.332Z,4.10
2023-12-31T05:44:13.484Z,3.90
2023-12-31T05:47:45.745Z,4.40
2023-12-31T05:51:10.350Z,4.50
2023-12-31T05:54:31.955Z,4.60
2023-12-31T05:57:53.274Z,3.80
2023-12-31T06:01:14.876Z,4.20
2023-12-31T06:04:36.614Z,4.10
2023-12-31T06:07:59.747Z,4.53
2023-12-31T06:11:21.396Z,4.27
2023-12-31T06:14:42.760Z,4.30
2023-12-31T06:18:04.062Z,4.53
2023-12-31T06:21:25.826Z,4.50
2023-12-31T06:24:48.450Z,4.47
2023-12-31T06:28:09.958Z,4.27
2023-12-31T06:31:31.470Z,4.27
2023-12-31T06:34:53.381Z,4.83
2023-12-31T06:38:14.851Z,4.70
2023-12-31T06:41:38.874Z,4.93
2023-12-31T06:45:00.514Z,4.60
2023-12-31T06:48:21.932Z,4.43
2023-12-31T06:51:43.716Z,4.30
2023-12-31T06:55:05.529Z,4.80
2023-12-31T06:58:28.126Z,5.20
2023-12-31T07:01:49.874Z,6.57
2023-12-31T07:05:11.379Z,9.73
2023-12-31T07:08:32.847Z,7.80
2023-12-31T07:11:54.385Z,6.57
2023-12-31T07:15:17.206Z,6.33
2023-12-31T07:18:38.892Z,5.03
2023-12-31T07:22:00.731Z,5.67
2023-12-31T07:25:22.140Z,5.87
2023-12-31T07:28:43.367Z,5.20
2023-12-31T07:32:06.720Z,5.30
2023-12-31T07:35:28.043Z,5.70
2023-12-31T07:38:49.264Z,5.20
2023-12-31T07:42:10.651Z,5.23
2023-12-31T07:45:32.523Z,4.93
2023-12-31T07:48:55.854Z,6.00
2023-12-31T07:52:17.871Z,6.47
2023-12-31T07:55:39.520Z,6.67
2023-12-31T07:59:01.306Z,6.63
2023-12-31T08:02:23.294Z,7.20
2023-12-31T08:05:46.022Z,6.70
2023-12-31T08:09:07.636Z,6.90
2023-12-31T08:12:29.061Z,7.20
2023-12-31T08:15:50.519Z,7.10
2023-12-31T08:19:11.903Z,7.03
2023-12-31T08:22:35.221Z,8.30
2023-12-31T08:25:56.749Z,7.70
2023-12-31T08:29:18.412Z,7.40
2023-12-31T08:32:40.215Z,7.57
2023-12-31T08:36:01.705Z,7.07
2023-12-31T08:39:24.990Z,6.70
2023-12-31T08:42:46.698Z,6.80
2023-12-31T08:46:09.158Z,6.80
2023-12-31T08:49:30.578Z,7.00
2023-12-31T08:52:52.456Z,6.70
2023-12-31T08:56:15.852Z,6.73
2023-12-31T08:59:37.248Z,7.43
2023-12-31T09:02:58.698Z,7.40
2023-12-31T09:06:20.351Z,7.30
2023-12-31T09:09:42.425Z,7.90
2023-12-31T09:13:05.509Z,8.10
2023-12-31T09:16:27.354Z,6.47
2023-12-31T09:19:48.644Z,7.17
2023-12-31T09:23:10.516Z,6.30
2023-12-31T09:26:32.962Z,7.20
2023-12-31T09:29:55.856Z,7.10
2023-12-31T09:33:17.357Z,7.10
2023-12-31T09:36:39.188Z,7.17
2023-12-31T09:40:01.307Z,7.67
2023-12-31T09:43:23.891Z,8.33
2023-12-31T09:47:37.578Z,8.00
2023-12-31T09:51:00.786Z,7.63
2023-12-31T09:54:24.021Z,7.47
2023-12-31T09:57:46.481Z,7.37
2023-12-31T10:01:07.935Z,7.27
2023-12-31T10:04:29.781Z,6.60
2023-12-31T10:07:53.471Z,6.90
2023-12-31T10:11:15.515Z,7.27
2023-12-31T10:14:36.991Z,9.37
2023-12-31T10:18:01.641Z,9.50
2023-12-31T10:21:24.528Z,7.80
2023-12-31T10:24:47.400Z,6.47
2023-12-31T10:28:08.737Z,6.60
2023-12-31T10:31:30.198Z,5.60
2023-12-31T10:35:04.058Z,6.00
2023-12-31T10:38:25.638Z,5.93
2023-12-31T10:41:49.335Z,5.70
2023-12-31T10:45:12.422Z,5.40
2023-12-31T10:48:35.283Z,5.90
2023-12-31T10:51:57.428Z,7.10
2023-12-31T10:55:19.364Z,7.93
2023-12-31T10:58:42.650Z,6.63
2023-12-31T11:02:06.234Z,6.23
2023-12-31T11:05:29.410Z,6.10
2023-12-31T11:08:51.501Z,6.70
2023-12-31T11:12:14.036Z,6.70
2023-12-31T11:15:38.728Z,6.13
2023-12-31T11:19:23.958Z,6.07
2023-12-31T11:22:55.394Z,6.53
2023-12-31T11:26:17.759Z,8.87
2023-12-31T11:29:39.961Z,6.90
2023-12-31T11:33:03.752Z,5.60
2023-12-31T11:36:25.751Z,5.83
2023-12-31T11:39:48.074Z,8.00
2023-12-31T11:43:14.443Z,7.30
2023-12-31T11:46:38.806Z,6.20
2023-12-31T11:50:22.909Z,6.30
2023-12-31T11:53:51.744Z,5.77
2023-12-31T11:57:15.067Z,5.63
2023-12-31T12:00:37.489Z,5.57
2023-12-31T12:03:59.485Z,6.90
2023-12-31T12:07:22.700Z,7.43
2023-12-31T12:10:44.953Z,5.90
2023-12-31T12:14:07.050Z,5.70
2023-12-31T12:17:30.978Z,6.20
2023-12-31T12:20:53.749Z,6.07
2023-12-31T12:24:18.159Z,5.80
2023-12-31T12:27:39.636Z,6.50
2023-12-31T12:31:01.008Z,7.57
2023-12-31T12:34:22.891Z,6.77
2023-12-31T12:37:44.572Z,7.73
2023-12-31T12:41:08.402Z,7.03
2023-12-31T12:44:29.724Z,7.30
2023-12-31T12:47:51.439Z,6.47
2023-12-31T12:51:13.318Z,7.90
2023-12-31T12:54:34.587Z,7.30
2023-12-31T12:57:57.474Z,6.37
2023-12-31T13:01:19.610Z,5.63
2023-12-31T13:04:40.839Z,6.20
2023-12-31T13:08:04.768Z,6.40
2023-12-31T13:11:26.435Z,7.03
2023-12-31T13:14:49.063Z,6.63
2023-12-31T13:18:14.411Z,7.97
2023-12-31T13:21:36.298Z,8.33
2023-12-31T13:24:58.096Z,8.67
2023-12-31T13:28:19.783Z,8.47
2023-12-31T13:31:42.932Z,8.10
2023-12-31T13:35:05.150Z,7.33
2023-12-31T13:38:27.220Z,6.20
2023-12-31T13:41:48.574Z,6.90
2023-12-31T13:45:10.410Z,6.17
2023-12-31T13:48:33.605Z,6.87
2023-12-31T13:51:55.157Z,6.80
2023-12-31T13:55:16.520Z,6.27
2023-12-31T13:58:37.864Z,7.23
2023-12-31T14:01:59.606Z,8.23
2023-12-31T14:05:22.508Z,9.87
2023-12-31T14:08:44.074Z,9.77
2023-12-31T14:12:08.023Z,10.23
2023-12-31T14:15:32.745Z,8.30
2023-12-31T14:18:54.139Z,8.70
2023-12-31T14:22:18.270Z,7.60
2023-12-31T14:25:39.772Z,7.30
2023-12-31T14:29:01.861Z,7.97
2023-12-31T14:32:23.761Z,7.03
2023-12-31T14:35:46.212Z,6.70
2023-12-31T14:39:09.662Z,6.93
2023-12-31T14:42:31.329Z,7.57
2023-12-31T14:45:54.357Z,7.70
2023-12-31T14:49:16.644Z,7.00
2023-12-31T14:52:38.279Z,6.83
2023-12-31T14:56:01.039Z,7.27
2023-12-31T14:59:22.546Z,7.30
2023-12-31T15:02:44.091Z,7.33
2023-12-31T15:06:08.016Z,6.90
2023-12-31T15:09:29.357Z,8.40
2023-12-31T15:12:52.863Z,7.93
2023-12-31T15:16:14.436Z,10.07
2023-12-31T15:19:35.892Z,11.83
2023-12-31T15:22:57.876Z,12.07
2023-12-31T15:26:19.650Z,9.87
2023-12-31T15:29:42.477Z,8.30
2023-12-31T15:33:03.976Z,7.90
2023-12-31T15:36:25.946Z,6.30
2023-12-31T15:39:47.698Z,6.10
2023-12-31T15:43:09.591Z,7.67
2023-12-31T15:46:32.491Z,19.90
2023-12-31T15:49:53.754Z,10.93
2023-12-31T15:53:15.262Z,6.83
2023-12-31T15:56:37.008Z,6.07
2023-12-31T16:00:00.962Z,6.47
2023-12-31T16:03:23.991Z,6.40
2023-12-31T16:06:45.790Z,7.03
2023-12-31T16:10:11.220Z,4.53
2023-12-31T16:13:32.751Z,4.73
2023-12-31T16:16:54.095Z,4.60
2023-12-31T16:20:18.410Z,5.40
2023-12-31T16:23:40.016Z,5.00
2023-12-31T16:27:01.185Z,5.70
2023-12-31T16:30:22.659Z,5.73
2023-12-31T16:33:44.528Z,7.17
2023-12-31T16:37:07.694Z,10.07
2023-12-31T16:40:29.108Z,10.87
2023-12-31T16:43:51.995Z,11.20
2023-12-31T16:47:13.539Z,17.83
2023-12-31T16:50:36.084Z,10.00
2023-12-31T16:54:00.325Z,16.53
2023-12-31T16:57:22.540Z,29.73
2023-12-31T17:00:44.003Z,12.93
2023-12-31T17:04:05.786Z,7.57
2023-12-31T17:07:27.092Z,20.07
2023-12-31T17:10:50.355Z,7.37
2023-12-31T17:14:11.565Z,6.40
2023-12-31T17:17:33.639Z,6.20
2023-12-31T17:20:55.334Z,8.20
2023-12-31T17:24:16.600Z,6.70
2023-12-31T17:27:40.027Z,8.00
2023-12-31T17:31:01.421Z,6.37
2023-12-31T17:34:23.523Z,6.03
2023-12-31T17:37:45.228Z,6.23
2023-12-31T17:41:07.003Z,5.80
2023-12-31T17:44:30.304Z,6.27
2023-12-31T17:47:51.989Z,6.20
2023-12-31T17:51:13.982Z,5.37
2023-12-31T17:54:35.673Z,5.73
2023-12-31T17:57:57.284Z,5.40
2023-12-31T18:01:20.115Z,5.43
2023-12-31T18:04:43.185Z,5.60
2023-12-31T18:08:07.977Z,6.77
2023-12-31T18:11:29.615Z,6.40
2023-12-31T18:14:51.205Z,5.50
2023-12-31T18:18:14.035Z,6.60
2023-12-31T18:21:35.851Z,6.30
2023-12-31T18:24:57.188Z,5.80
2023-12-31T18:28:18.530Z,6.73
2023-12-31T18:31:40.291Z,6.93
2023-12-31T18:35:03.520Z,7.27
2023-12-31T18:38:25.316Z,6.27
2023-12-31T18:41:46.517Z,6.30
2023-12-31T18:45:08.568Z,5.73
2023-12-31T18:48:30.282Z,6.00
2023-12-31T18:51:54.464Z,6.13
2023-12-31T18:55:16.644Z,6.77
2023-12-31T18:58:38.266Z,5.97
2023-12-31T19:02:00.212Z,7.20
2023-12-31T19:05:22.522Z,6.47
2023-12-31T19:08:45.566Z,5.67
2023-12-31T19:12:08.523Z,18.00
2023-12-31T19:15:30.185Z,9.40
2023-12-31T19:18:57.514Z,7.30
2023-12-31T19:22:19.260Z,6.77
2023-12-31T19:25:41.959Z,7.07
2023-12-31T19:29:03.336Z,10.30
2023-12-31T19:32:25.052Z,9.67
2023-12-31T19:35:46.526Z,7.90
2023-12-31T19:39:09.054Z,9.10
2023-12-31T19:42:31.909Z,27.80
2023-12-31T19:45:54.087Z,9.87
2023-12-31T19:49:16.672Z,7.33
2023-12-31T19:52:38.398Z,10.07
2023-12-31T19:56:00.208Z,6.70
2023-12-31T19:59:23.162Z,17.67
2023-12-31T20:02:44.372Z,19.17
2023-12-31T20:06:06.497Z,16.50
2023-12-31T20:09:27.987Z,12.03
2023-12-31T20:12:49.426Z,10.50
2023-12-31T20:16:12.720Z,10.37
2023-12-31T20:19:34.460Z,11.20
2023-12-31T20:22:56.223Z,10.70
2023-12-31T20:26:17.577Z,10.30
2023-12-31T20:29:39.458Z,9.20
2023-12-31T20:33:02.605Z,8.27
2023-12-31T20:36:24.544Z,8.07
2023-12-31T20:39:45.831Z,7.43
2023-12-31T20:43:07.690Z,7.93
2023-12-31T20:46:30.048Z,7.73
2023-12-31T20:49:53.590Z,7.90
2023-12-31T20:53:17.212Z,7.27
2023-12-31T20:56:39.145Z,6.77
2023-12-31T21:00:00.779Z,7.67
2023-12-31T21:03:24.275Z,13.83
2023-12-31T21:06:47.233Z,8.23
2023-12-31T21:10:09.229Z,24.17
2023-12-31T21:13:31.047Z,23.20
2023-12-31T21:16:52.659Z,10.57
2023-12-31T21:20:14.195Z,8.73
2023-12-31T21:23:37.315Z,9.20
2023-12-31T21:26:58.623Z,11.87
2023-12-31T21:30:21.114Z,11.97
2023-12-31T21:33:42.831Z,18.37
2023-12-31T21:37:04.813Z,20.17
2023-12-31T21:40:27.697Z,18.67
2023-12-31T21:43:49.810Z,33.87
2023-12-31T21:47:11.229Z,120.23
2023-12-31T21:50:33.187Z,60.17
2023-12-31T21:53:54.710Z,52.53
2023-12-31T21:57:24.165Z,168.83
2023-12-31T22:00:47.551Z,148.97
2023-12-31T22:04:09.498Z,45.67
2023-12-31T22:07:30.777Z,32.47
2023-12-31T22:10:52.020Z,37.57
2023-12-31T22:14:15.221Z,101.53
2023-12-31T22:17:36.890Z,57.20
2023-12-31T22:20:59.066Z,49.83
2023-12-31T22:24:20.765Z,48.17
2023-12-31T22:27:42.169Z,63.97
2023-12-31T22:31:04.966Z,34.30
2023-12-31T22:34:26.906Z,22.37
2023-12-31T22:37:48.401Z,20.27
2023-12-31T22:41:10.844Z,19.43
2023-12-31T22:44:32.525Z,19.20
2023-12-31T22:47:55.261Z,19.37
2023-12-31T22:51:17.985Z,19.37
2023-12-31T22:54:39.535Z,20.33
2023-12-31T22:58:00.990Z,20.33
2023-12-31T23:01:22.370Z,22.37
2023-12-31T23:04:45.099Z,35.33
2023-12-31T23:08:06.939Z,308.27
2023-12-31T23:11:28.995Z,578.70
2023-12-31T23:14:50.887Z,635.00
2023-12-31T23:18:12.684Z,341.20
2023-12-31T23:21:35.559Z,730.90
2023-12-31T23:24:57.535Z,567.50
2023-12-31T23:28:19.167Z,726.53
2023-12-31T23:31:40.515Z,486.43
2023-12-31T23:35:02.380Z,503.33
2023-12-31T23:38:25.709Z,263.50
2023-12-31T23:41:47.973Z,134.43
2023-12-31T23:45:11.188Z,113.57
2023-12-31T23:48:33.185Z,156.73
2023-12-31T23:51:54.851Z,96.50
2023-12-31T23:55:18.006Z,90.07
2023-12-31T23:58:39.541Z,65.30
